Time;durP1;ratioP1;P1;durP2;ratioP2;P2;SDS_P1;SDS_P2;PMS_P1;PMS_P2;Temp;Humidity;BMP_temperature;BMP_pressure;BME280_temperature;BME280_humidity;BME280_pressure;Samples;Min_cycle;Max_cycle;Signal;HPM_P1;HPM_P2
2023/06/23 00:00:30;;;;;;;1999.90;999.90;;;17.90;99.90;;;;;;4919284;29;20047;-73
2023/06/23 00:02:57;;;;;;;1999.90;999.90;;;17.90;99.90;;;;;;4919258;29;20052;-74
2023/06/23 00:05:23;;;;;;;1999.90;999.90;;;17.90;99.90;;;;;;4919365;29;20040;-73
2023/06/23 00:07:49;;;;;;;1999.90;999.90;;;17.90;99.90;;;;;;4886958;29;20063;-73
2023/06/23 00:10:15;;;;;;;1999.90;999.90;;;17.80;99.90;;;;;;4919276;29;20059;-74
2023/06/23 00:12:43;;;;;;;1999.90;999.90;;;17.90;99.90;;;;;;4919010;29;20040;-74
2023/06/23 00:15:13;;;;;;;1999.90;999.90;;;17.80;99.90;;;;;;4917768;29;20150;-74
2023/06/23 00:17:43;;;;;;;1999.90;999.90;;;17.80;99.90;;;;;;4919113;29;20040;-74
2023/06/23 00:20:13;;;;;;;1999.90;999.90;;;17.80;99.90;;;;;;4919064;29;20048;-74
2023/06/23 00:22:40;;;;;;;1999.90;999.90;;;17.80;99.90;;;;;;4918023;29;20048;-74
2023/06/23 00:25:09;;;;;;;1999.90;999.90;;;17.80;99.90;;;;;;4917405;29;20477;-74
2023/06/23 00:27:39;;;;;;;1999.90;999.90;;;17.80;99.90;;;;;;4918587;29;20060;-74
2023/06/23 00:30:06;;;;;;;1999.90;999.90;;;17.80;99.90;;;;;;4919294;29;20055;-74
2023/06/23 00:32:32;;;;;;;1999.90;999.90;;;17.70;99.90;;;;;;4919103;29;20051;-74
2023/06/23 00:34:59;;;;;;;1999.90;999.90;;;17.70;99.90;;;;;;4919023;29;20044;-74
2023/06/23 00:37:25;;;;;;;1999.90;999.90;;;17.70;99.90;;;;;;4918692;29;20052;-74
2023/06/23 00:39:51;;;;;;;1999.90;999.90;;;17.70;99.90;;;;;;4917598;29;20055;-74
2023/06/23 00:42:16;;;;;;;1999.90;999.90;;;17.70;99.90;;;;;;4918302;29;20052;-74
2023/06/23 00:44:43;;;;;;;1999.90;999.90;;;17.70;99.90;;;;;;4917645;29;20044;-74
2023/06/23 00:47:09;;;;;;;1999.90;999.90;;;17.60;99.90;;;;;;4918836;29;20067;-74
2023/06/23 00:49:35;;;;;;;1999.90;999.90;;;17.60;99.90;;;;;;4917661;29;20575;-74
2023/06/23 00:52:07;;;;;;;1999.90;999.90;;;17.60;99.90;;;;;;4918363;29;20083;-74
2023/06/23 00:54:35;;;;;;;1999.90;999.90;;;17.60;99.90;;;;;;4917787;29;20051;-75
2023/06/23 00:57:05;;;;;;;1999.90;999.90;;;17.60;99.90;;;;;;4916612;29;20056;-75
2023/06/23 00:59:30;;;;;;;1999.90;999.90;;;17.60;99.90;;;;;;4917262;29;20527;-74
2023/06/23 01:02:02;;;;;;;1999.90;999.90;;;17.60;99.90;;;;;;4918215;29;20048;-74
2023/06/23 01:04:32;;;;;;;1999.90;999.90;;;17.50;99.90;;;;;;4918547;29;20052;-74
2023/06/23 01:07:22;;;;;;;1999.90;999.90;;;17.50;99.90;;;;;;4918214;29;20412;-73
2023/06/23 01:10:07;;;;;;;1999.90;999.90;;;15.90;99.90;;;;;;4918097;29;20059;-74
2023/06/23 01:12:37;;;;;;;1999.90;999.90;;;17.40;99.90;;;;;;4917170;29;20130;-75
2023/06/23 01:15:17;;;;;;;1999.90;999.90;;;17.40;99.90;;;;;;4917309;29;20078;-74
2023/06/23 01:18:03;;;;;;;1999.90;999.90;;;17.40;99.90;;;;;;4916573;29;20098;-74
2023/06/23 01:20:35;;;;;;;1999.90;999.90;;;17.40;99.90;;;;;;4917241;29;20048;-73
2023/06/23 01:23:20;;;;;;;1999.90;999.90;;;17.40;99.90;;;;;;4918078;29;20392;-74
2023/06/23 01:26:00;;;;;;;1999.90;999.90;;;17.40;99.90;;;;;;4917390;29;20401;-74
2023/06/23 01:28:47;;;;;;;1999.90;999.90;;;17.40;99.90;;;;;;4917638;29;20067;-74
2023/06/23 01:31:31;;;;;;;1999.90;999.90;;;17.40;99.90;;;;;;4918091;29;20075;-73
2023/06/23 01:34:04;;;;;;;1999.90;999.90;;;17.50;99.90;;;;;;4917963;29;20425;-73
2023/06/23 01:36:40;;;;;;;1999.90;999.90;;;17.50;99.90;;;;;;4916694;29;20493;-73
2023/06/23 01:39:11;;;;;;;1999.90;999.90;;;17.40;99.90;;;;;;4918064;29;20374;-73
2023/06/23 01:42:08;;;;;;;1999.90;999.90;;;17.40;99.90;;;;;;4916680;29;20441;-73
2023/06/23 01:44:37;;;;;;;1999.90;999.90;;;17.40;99.90;;;;;;4908455;29;20508;-74
2023/06/23 01:47:11;;;;;;;1999.90;999.90;;;17.40;99.90;;;;;;4916463;29;20131;-73
2023/06/23 01:49:38;;;;;;;1999.90;999.90;;;17.40;99.90;;;;;;4917420;29;20560;-73
2023/06/23 01:52:07;;;;;;;1999.90;999.90;;;17.40;99.90;;;;;;4917469;29;20052;-73
2023/06/23 01:54:37;;;;;;;1999.90;999.90;;;17.40;99.90;;;;;;4916969;29;20040;-74
2023/06/23 01:57:05;;;;;;;1999.90;999.90;;;17.40;99.90;;;;;;4917260;29;20050;-74
2023/06/23 01:59:33;;;;;;;1999.90;999.90;;;17.40;99.90;;;;;;4917070;29;20079;-73
2023/06/23 02:02:00;;;;;;;1999.90;999.90;;;17.40;99.90;;;;;;4917265;29;20044;-73
2023/06/23 02:04:28;;;;;;;1999.90;999.90;;;17.40;99.90;;;;;;4917362;29;20055;-73
2023/06/23 02:06:56;;;;;;;1999.90;999.90;;;17.40;99.90;;;;;;4917372;29;20174;-73
2023/06/23 02:09:25;;;;;;;1999.90;999.90;;;17.40;99.90;;;;;;4917253;29;20519;-73
2023/06/23 02:11:52;;;;;;;1999.90;999.90;;;17.40;99.90;;;;;;4916962;29;20493;-74
2023/06/23 02:14:19;;;;;;;1999.90;999.90;;;17.40;99.90;;;;;;4916119;29;20540;-73
2023/06/23 02:16:46;;;;;;;1999.90;999.90;;;17.40;99.90;;;;;;4917189;29;20068;-73
2023/06/23 02:19:13;;;;;;;1999.90;999.90;;;17.50;99.90;;;;;;4900402;29;20161;-73
2023/06/23 02:21:41;;;;;;;1999.90;999.90;;;17.50;99.90;;;;;;4916987;29;20044;-73
2023/06/23 02:24:07;;;;;;;1999.90;999.90;;;17.50;99.90;;;;;;4900374;29;20093;-73
2023/06/23 02:26:35;;;;;;;1999.90;999.90;;;17.50;99.90;;;;;;4916207;29;20056;-74
2023/06/23 02:29:03;;;;;;;1999.90;999.90;;;17.50;99.90;;;;;;4917350;29;20063;-74
2023/06/23 02:31:28;;;;;;;1999.90;999.90;;;17.50;99.90;;;;;;4917122;29;20080;-74
2023/06/23 02:33:54;;;;;;;1999.90;999.90;;;17.50;99.90;;;;;;4916954;29;20147;-73
2023/06/23 02:36:30;;;;;;;1999.90;999.90;;;17.50;99.90;;;;;;4916938;29;20135;-73
2023/06/23 02:38:58;;;;;;;1999.90;999.90;;;17.50;99.90;;;;;;4916864;29;20052;-73
2023/06/23 02:41:28;;;;;;;1999.90;999.90;;;17.50;99.90;;;;;;4915769;29;20060;-73
2023/06/23 02:43:59;;;;;;;1999.90;999.90;;;17.50;99.90;;;;;;4917426;29;20052;-72
2023/06/23 02:46:30;;;;;;;1999.90;999.90;;;17.50;99.90;;;;;;4915955;29;20536;-73
2023/06/23 02:49:03;;;;;;;1999.90;999.90;;;17.50;99.90;;;;;;4915916;29;20131;-72
2023/06/23 02:51:30;;;;;;;1999.90;999.90;;;17.60;99.90;;;;;;4916706;29;20516;-72
2023/06/23 02:54:01;;;;;;;1999.90;999.90;;;17.60;99.90;;;;;;4915813;29;20087;-72
2023/06/23 02:56:28;;;;;;;1999.90;999.90;;;17.60;99.90;;;;;;4915212;29;20044;-73
2023/06/23 02:59:17;;;;;;;1999.90;999.90;;;17.60;99.90;;;;;;4916763;29;20063;-72
2023/06/23 03:01:46;;;;;;;1999.90;999.90;;;17.60;99.90;;;;;;4916783;29;20102;-73
2023/06/23 03:04:12;;;;;;;1999.90;999.90;;;17.60;99.90;;;;;;4916603;29;20059;-73
2023/06/23 03:06:39;;;;;;;1999.90;999.90;;;17.60;99.90;;;;;;4917077;29;20052;-72
2023/06/23 03:09:06;;;;;;;1999.90;999.90;;;17.60;99.90;;;;;;4915592;29;20107;-73
2023/06/23 03:11:33;;;;;;;1999.90;999.90;;;17.70;99.90;;;;;;4915796;29;20100;-73
2023/06/23 03:13:59;;;;;;;1999.90;999.90;;;17.60;99.90;;;;;;4916608;29;20063;-73
2023/06/23 03:16:28;;;;;;;1999.90;999.90;;;17.70;99.90;;;;;;4915429;29;20048;-72
2023/06/23 03:19:17;;;;;;;1999.90;999.90;;;17.70;99.90;;;;;;4916392;29;20060;-73
2023/06/23 03:21:47;;;;;;;1999.90;999.90;;;17.70;99.90;;;;;;4919437;29;20404;-73
2023/06/23 03:24:14;;;;;;;1999.90;999.90;;;17.70;99.90;;;;;;4919786;29;20552;-73
2023/06/23 03:26:45;;;;;;;1999.90;999.90;;;17.70;99.90;;;;;;4918274;29;20110;-73
2023/06/23 03:29:12;;;;;;;1999.90;999.90;;;17.70;99.90;;;;;;4919740;29;20126;-73
2023/06/23 03:31:42;;;;;;;1999.90;999.90;;;17.70;99.90;;;;;;4918725;29;20485;-73
2023/06/23 03:34:08;;;;;;;1999.90;999.90;;;17.70;99.90;;;;;;4924618;29;20054;-73
2023/06/23 03:36:38;;;;;;;1999.90;999.90;;;17.70;99.90;;;;;;4938729;29;20060;-73
2023/06/23 03:39:14;;;;;;;1999.90;999.90;;;17.70;99.90;;;;;;4938635;29;20059;-73
2023/06/23 03:41:41;;;;;;;1999.90;999.90;;;17.70;99.90;;;;;;4938470;29;20058;-73
2023/06/23 03:44:20;;;;;;;1999.90;999.90;;;17.70;99.90;;;;;;4939019;29;20070;-73
2023/06/23 03:46:51;;;;;;;1999.90;999.90;;;17.70;99.90;;;;;;4937750;29;20073;-73
2023/06/23 03:49:18;;;;;;;1999.90;999.90;;;17.70;99.90;;;;;;4937279;29;20058;-73
2023/06/23 03:51:47;;;;;;;1999.90;999.90;;;17.70;99.90;;;;;;4938476;29;20062;-73
2023/06/23 03:54:15;;;;;;;1999.90;999.90;;;17.70;99.90;;;;;;4938405;29;20114;-73
2023/06/23 03:56:43;;;;;;;1999.90;999.90;;;17.70;99.90;;;;;;4938016;29;20122;-73
2023/06/23 03:59:11;;;;;;;1999.90;999.90;;;17.70;99.90;;;;;;4938406;29;20055;-73
2023/06/23 04:01:38;;;;;;;1999.90;999.90;;;17.70;99.90;;;;;;4937296;29;20180;-74
2023/06/23 04:04:06;;;;;;;1999.90;999.90;;;17.70;99.90;;;;;;4938422;29;20051;-73
2023/06/23 04:06:34;;;;;;;1999.90;999.90;;;17.70;99.90;;;;;;4937203;29;20047;-73
2023/06/23 04:09:02;;;;;;;1999.90;999.90;;;17.70;99.90;;;;;;4921497;29;20102;-73
2023/06/23 04:11:30;;;;;;;1999.90;999.90;;;17.60;99.90;;;;;;4921605;29;20090;-73
2023/06/23 04:13:56;;;;;;;1999.90;999.90;;;17.70;99.90;;;;;;4938200;29;20058;-74
2023/06/23 04:16:23;;;;;;;1999.90;999.90;;;17.60;99.90;;;;;;4938167;29;20322;-74
2023/06/23 04:18:51;;;;;;;1999.90;999.90;;;17.60;99.90;;;;;;4937993;29;20055;-74
2023/06/23 04:21:18;;;;;;;1999.90;999.90;;;17.60;99.90;;;;;;4937761;29;20048;-74
2023/06/23 04:23:45;;;;;;;1999.90;999.90;;;17.00;99.90;;;;;;4938379;29;20056;-73
2023/06/23 04:26:13;;;;;;;1999.90;999.90;;;17.60;99.90;;;;;;4937335;29;20055;-74
2023/06/23 04:28:43;;;;;;;1999.90;999.90;;;17.60;99.90;;;;;;4938205;29;20055;-73
2023/06/23 04:31:10;;;;;;;1999.90;999.90;;;17.60;99.90;;;;;;4936879;29;20122;-73
2023/06/23 04:33:36;;;;;;;1999.90;999.90;;;17.60;99.90;;;;;;4937885;29;20066;-73
2023/06/23 04:36:14;;;;;;;1999.90;999.90;;;17.60;99.90;;;;;;4937722;29;20051;-73
2023/06/23 04:38:47;;;;;;;1999.90;999.90;;;17.60;99.90;;;;;;4936985;29;20052;-74
2023/06/23 04:41:18;;;;;;;1999.90;999.90;;;17.60;99.90;;;;;;4937525;29;20087;-74
2023/06/23 04:43:50;;;;;;;1999.90;999.90;;;17.60;99.90;;;;;;4936552;29;20054;-74
2023/06/23 04:46:22;;;;;;;1999.90;999.90;;;17.70;99.90;;;;;;4937451;29;20055;-75
2023/06/23 04:48:55;;;;;;;1999.90;999.90;;;17.70;99.90;;;;;;4937713;29;20134;-73
2023/06/23 04:51:27;;;;;;;;;;;17.70;99.90;;;;;;4921922;29;20056;-72
2023/06/23 04:53:57;;;;;;;1999.90;999.90;;;17.70;99.90;;;;;;4936492;29;20335;-72
2023/06/23 04:56:28;;;;;;;1999.90;999.90;;;17.70;99.90;;;;;;4936701;29;20102;-73
2023/06/23 04:58:57;;;;;;;1999.90;999.90;;;17.80;99.90;;;;;;4937284;29;20055;-73
2023/06/23 05:01:24;;;;;;;1999.90;999.90;;;17.70;99.90;;;;;;4937347;29;20394;-72
2023/06/23 05:03:52;;;;;;;1999.90;999.90;;;17.80;99.90;;;;;;4937220;29;20087;-73
2023/06/23 05:06:20;;;;;;;1999.90;999.90;;;17.70;99.90;;;;;;4936971;29;20056;-72
2023/06/23 05:08:48;;;;;;;1999.90;999.90;;;17.80;99.90;;;;;;4935647;29;20518;-73
2023/06/23 05:11:14;;;;;;;1999.90;999.90;;;17.80;99.90;;;;;;4936873;29;20059;-73
2023/06/23 05:13:42;;;;;;;1999.90;999.90;;;17.80;99.90;;;;;;4937087;29;20047;-72
2023/06/23 05:16:11;;;;;;;1999.90;999.90;;;17.80;99.90;;;;;;4937013;29;20056;-73
2023/06/23 05:18:38;;;;;;;1999.90;999.90;;;17.80;99.90;;;;;;4935855;29;20050;-73
2023/06/23 05:21:05;;;;;;;1999.90;999.90;;;17.90;99.90;;;;;;4936960;29;20067;-72
2023/06/23 05:23:39;;;;;;;1999.90;999.90;;;17.90;99.90;;;;;;4935644;29;20040;-73
2023/06/23 05:26:08;;;;;;;1999.90;999.90;;;17.90;99.90;;;;;;4935270;29;20056;-73
2023/06/23 05:28:37;;;;;;;1999.90;999.90;;;17.90;99.90;;;;;;4936798;29;20066;-73
2023/06/23 05:31:05;;;;;;;1999.90;999.90;;;18.00;99.90;;;;;;4935923;29;20039;-73
2023/06/23 05:33:34;;;;;;;1999.90;999.90;;;18.00;99.90;;;;;;4935838;29;20139;-73
2023/06/23 05:36:01;;;;;;;1999.90;999.90;;;18.00;99.90;;;;;;4936584;29;20051;-74
2023/06/23 05:38:29;;;;;;;1999.90;999.90;;;18.00;99.90;;;;;;4936633;29;20424;-73
2023/06/23 05:40:55;;;;;;;1999.90;999.90;;;18.00;99.90;;;;;;4937278;29;20464;-73
2023/06/23 05:43:20;;;;;;;1999.90;999.90;;;18.00;99.90;;;;;;4936141;29;20510;-74
2023/06/23 05:45:47;;;;;;;1999.90;999.90;;;18.10;99.90;;;;;;4936710;29;20083;-74
2023/06/23 05:48:28;;;;;;;1999.90;999.90;;;18.10;99.90;;;;;;4935681;29;20091;-74
2023/06/23 05:51:00;;;;;;;1999.90;999.90;;;18.10;99.90;;;;;;4935391;29;20054;-74
2023/06/23 05:53:29;;;;;;;1999.90;999.90;;;18.10;99.90;;;;;;4936497;29;20389;-73
2023/06/23 05:56:02;;;;;;;1999.90;999.90;;;18.20;99.90;;;;;;4935913;29;20066;-73
2023/06/23 05:58:33;;;;;;;1999.90;999.90;;;18.10;99.90;;;;;;4936609;29;20044;-74
2023/06/23 06:01:07;;;;;;;1999.90;999.90;;;18.20;99.90;;;;;;4936495;29;20186;-74
2023/06/23 06:03:46;;;;;;;1999.90;999.90;;;18.20;99.90;;;;;;4935005;29;20040;-74
2023/06/23 06:06:13;;;;;;;1999.90;999.90;;;18.20;99.90;;;;;;4936536;29;20118;-74
2023/06/23 06:08:40;;;;;;;1999.90;999.90;;;18.20;99.90;;;;;;4936276;29;20055;-75
2023/06/23 06:11:07;;;;;;;1999.90;999.90;;;18.20;99.90;;;;;;4936284;29;20047;-74
2023/06/23 06:13:43;;;;;;;1999.90;999.90;;;18.20;99.90;;;;;;4935240;29;20496;-74
2023/06/23 06:16:10;;;;;;;1999.90;999.90;;;18.20;99.90;;;;;;4936466;29;20051;-74
2023/06/23 06:18:37;;;;;;;1999.90;999.90;;;18.10;99.90;;;;;;4935303;29;20048;-74
2023/06/23 06:21:04;;;;;;;1999.90;999.90;;;18.10;99.90;;;;;;4936242;29;20051;-74
2023/06/23 06:23:31;;;;;;;1999.90;999.90;;;18.10;99.90;;;;;;4936244;29;20036;-74
2023/06/23 06:25:58;;;;;;;1999.90;999.90;;;18.20;99.90;;;;;;4935478;29;20103;-75
2023/06/23 06:28:26;;;;;;;1999.90;999.90;;;18.10;99.90;;;;;;4935746;29;20063;-74
2023/06/23 06:30:54;;;;;;;1999.90;999.90;;;18.10;99.90;;;;;;4936114;29;20058;-75
2023/06/23 06:33:21;;;;;;;1999.90;999.90;;;18.10;99.90;;;;;;4936415;29;20052;-74
2023/06/23 06:35:48;;;;;;;1999.90;999.90;;;18.10;99.90;;;;;;4935916;29;20055;-74
2023/06/23 06:38:16;;;;;;;1999.90;999.90;;;18.10;99.90;;;;;;4936043;29;20083;-74
2023/06/23 06:40:46;;;;;;;1999.90;999.90;;;18.10;99.90;;;;;;4935994;29;20055;-74
2023/06/23 06:43:12;;;;;;;1999.90;999.90;;;18.10;99.90;;;;;;4935817;29;20044;-74
2023/06/23 06:45:38;;;;;;;1999.90;999.90;;;18.10;99.90;;;;;;4936332;29;20540;-75
2023/06/23 06:48:05;;;;;;;1999.90;999.90;;;18.10;99.90;;;;;;4935200;29;20052;-75
2023/06/23 06:50:32;;;;;;;1999.90;999.90;;;18.10;99.90;;;;;;4934850;29;20052;-74
2023/06/23 06:52:59;;;;;;;1999.90;999.90;;;18.10;99.90;;;;;;4935750;29;20078;-74
2023/06/23 06:55:25;;;;;;;1999.90;999.90;;;18.20;99.90;;;;;;4920696;29;20051;-75
2023/06/23 06:57:51;;;;;;;1999.90;999.90;;;18.20;99.90;;;;;;4938435;29;20082;-74
2023/06/23 07:00:22;;;;;;;1999.90;999.90;;;18.20;99.90;;;;;;4922798;29;20412;-74
2023/06/23 07:02:48;;;;;;;1999.90;999.90;;;18.20;99.90;;;;;;4939500;29;20119;-73
2023/06/23 07:05:16;;;;;;;1999.90;999.90;;;18.30;99.90;;;;;;4938557;29;20563;-73
2023/06/23 07:07:42;;;;;;;1999.90;999.90;;;18.40;99.90;;;;;;4938525;29;20058;-72
2023/06/23 07:10:08;;;;;;;1999.90;999.90;;;18.40;99.90;;;;;;4939291;29;20051;-73
2023/06/23 07:12:34;;;;;;;1999.90;999.90;;;18.50;99.90;;;;;;4939250;29;20039;-73
2023/06/23 07:15:00;;;;;;;1999.90;999.90;;;18.60;99.90;;;;;;4938065;29;20514;-73
2023/06/23 07:17:26;;;;;;;1999.90;999.90;;;18.60;99.90;;;;;;4939263;29;20047;-73
2023/06/23 07:19:52;;;;;;;1999.90;999.90;;;18.60;99.90;;;;;;4939387;29;20047;-73
2023/06/23 07:22:18;;;;;;;1999.90;999.90;;;18.70;99.90;;;;;;4939264;29;20066;-73
2023/06/23 07:24:44;;;;;;;1999.90;999.90;;;18.70;99.90;;;;;;4938857;29;20066;-73
2023/06/23 07:27:10;;;;;;;1999.90;999.90;;;18.80;99.90;;;;;;4939164;29;20064;-73
2023/06/23 07:29:36;;;;;;;1999.90;999.90;;;18.80;99.90;;;;;;4923067;29;20086;-73
2023/06/23 07:32:02;;;;;;;1999.90;999.90;;;18.90;99.90;;;;;;4939023;29;20040;-73
2023/06/23 07:34:28;;;;;;;1999.90;999.90;;;18.90;99.90;;;;;;4938126;29;20051;-72
2023/06/23 07:36:55;;;;;;;1999.90;999.90;;;18.90;99.90;;;;;;4939058;29;20499;-73
2023/06/23 07:39:20;;;;;;;1999.90;999.90;;;18.90;99.90;;;;;;4937962;29;20044;-72
2023/06/23 07:41:46;;;;;;;1999.90;999.90;;;19.00;99.90;;;;;;4938850;29;20048;-72
2023/06/23 07:44:12;;;;;;;1999.90;999.90;;;19.00;99.90;;;;;;4937805;29;20051;-73
2023/06/23 07:46:38;;;;;;;1999.90;999.90;;;19.10;99.90;;;;;;4939240;29;20092;-72
2023/06/23 07:49:03;;;;;;;1999.90;999.90;;;19.10;99.90;;;;;;4939010;29;20520;-72
2023/06/23 07:51:29;;;;;;;1999.90;999.90;;;19.10;99.90;;;;;;4937858;29;20074;-73
2023/06/23 07:53:55;;;;;;;1999.90;999.90;;;19.10;99.90;;;;;;4937748;29;20503;-74
2023/06/23 07:56:21;;;;;;;1999.90;999.90;;;19.10;99.90;;;;;;4937371;29;20518;-73
2023/06/23 07:58:47;;;;;;;1999.90;999.90;;;19.20;99.90;;;;;;4938553;29;20049;-73
2023/06/23 08:01:12;;;;;;;1999.90;999.90;;;19.20;99.90;;;;;;4938440;29;20047;-74
2023/06/23 08:03:39;;;;;;;1999.90;999.90;;;19.20;99.90;;;;;;4937169;29;20047;-74
2023/06/23 08:06:05;;;;;;;1999.90;999.90;;;19.20;99.90;;;;;;4937266;29;20407;-74
2023/06/23 08:08:32;;;;;;;1999.90;999.90;;;19.30;99.90;;;;;;4938406;29;20130;-74
2023/06/23 08:10:58;;;;;;;1999.90;999.90;;;19.30;99.90;;;;;;4915546;29;20092;-74
2023/06/23 08:13:24;;;;;;;1999.90;999.90;;;19.40;99.90;;;;;;4917557;29;20131;-74
2023/06/23 08:15:50;;;;;;;1999.90;999.90;;;19.50;99.90;;;;;;4912126;29;20481;-74
2023/06/23 08:18:15;;;;;;;1999.90;999.90;;;19.50;99.90;;;;;;4910152;29;20079;-75
2023/06/23 08:20:41;;;;;;;1999.90;999.90;;;19.60;99.90;;;;;;4910084;29;20079;-75
2023/06/23 08:23:07;;;;;;;1999.90;999.90;;;19.70;99.90;;;;;;4907287;29;20092;-74
2023/06/23 08:25:32;;;;;;;1999.90;999.90;;;19.80;99.90;;;;;;4909816;29;20044;-76
2023/06/23 08:27:58;;;;;;;1999.90;999.90;;;19.80;99.90;;;;;;4891557;29;20057;-74
2023/06/23 08:30:29;;;;;;;1999.90;999.90;;;20.00;99.90;;;;;;4907840;29;20062;-75
2023/06/23 08:32:55;;;;;;;1999.90;999.90;;;20.00;99.90;;;;;;4908750;29;20048;-74
2023/06/23 08:35:22;;;;;;;1999.90;999.90;;;20.10;99.90;;;;;;4907594;29;20044;-75
2023/06/23 08:37:48;;;;;;;1999.90;999.90;;;20.20;99.90;;;;;;4907103;29;20051;-76
2023/06/23 08:40:14;;;;;;;1999.90;999.90;;;20.30;99.90;;;;;;4909895;29;20051;-76
2023/06/23 08:42:40;;;;;;;1999.90;999.90;;;20.30;99.90;;;;;;4908465;29;20136;-76
2023/06/23 08:45:07;;;;;;;1999.90;999.90;;;20.40;99.90;;;;;;4907581;29;20246;-75
2023/06/23 08:47:40;;;;;;;1999.90;999.90;;;20.40;99.90;;;;;;4909748;29;20052;-75
2023/06/23 08:50:08;;;;;;;1999.90;999.90;;;20.50;99.90;;;;;;4909055;29;20505;-75
2023/06/23 08:52:34;;;;;;;1999.90;999.90;;;20.50;99.90;;;;;;4907380;29;20052;-75
2023/06/23 08:55:02;;;;;;;1999.90;999.90;;;20.50;99.90;;;;;;4912358;29;20052;-74
2023/06/23 08:57:28;;;;;;;1999.90;999.90;;;20.60;99.90;;;;;;4917600;29;20055;-74
2023/06/23 08:59:55;;;;;;;1999.90;999.90;;;20.70;99.90;;;;;;4919277;29;20052;-74
2023/06/23 09:02:21;;;;;;;1999.90;999.90;;;20.70;99.90;;;;;;4901117;29;20139;-74
2023/06/23 09:04:47;;;;;;;1999.90;999.90;;;20.80;99.90;;;;;;4917824;29;20423;-74
2023/06/23 09:07:13;;;;;;;1999.90;999.90;;;20.80;99.90;;;;;;4917316;29;20134;-74
2023/06/23 09:09:40;;;;;;;1999.90;999.90;;;20.90;99.90;;;;;;4923192;29;20071;-74
2023/06/23 09:12:07;;;;;;;1999.90;999.90;;;20.90;99.90;;;;;;4931735;29;20048;-74
2023/06/23 09:14:35;;;;;;;1999.90;999.90;;;21.00;99.90;;;;;;4913490;29;20077;-73
2023/06/23 09:17:01;;;;;;;1999.90;999.90;;;21.00;99.90;;;;;;4904722;29;20052;-74
2023/06/23 09:19:27;;;;;;;1999.90;999.90;;;21.10;99.90;;;;;;4908442;29;20040;-74
2023/06/23 09:21:54;;;;;;;1999.90;999.90;;;21.10;99.90;;;;;;4911993;29;20052;-74
2023/06/23 09:24:21;;;;;;;1999.90;999.90;;;21.20;99.90;;;;;;4907141;29;20076;-73
2023/06/23 09:26:52;;;;;;;1999.90;999.90;;;21.20;99.90;;;;;;4907307;29;20060;-73
2023/06/23 09:29:20;;;;;;;1999.90;999.90;;;21.30;99.90;;;;;;4909996;29;20107;-74
2023/06/23 09:31:56;;;;;;;1999.90;999.90;;;21.30;99.90;;;;;;4907067;29;20044;-73
2023/06/23 09:34:26;;;;;;;1999.90;999.90;;;21.30;99.90;;;;;;4909069;29;20058;-74
2023/06/23 09:36:54;;;;;;;1999.90;999.90;;;21.30;99.90;;;;;;4906290;29;20396;-74
2023/06/23 09:39:20;;;;;;;1999.90;999.90;;;21.30;99.90;;;;;;4909030;29;20079;-74
2023/06/23 09:41:52;;;;;;;1999.90;999.90;;;21.40;99.90;;;;;;4906806;29;20087;-73
2023/06/23 09:44:18;;;;;;;;;;;21.40;99.90;;;;;;4909626;29;20059;-73
2023/06/23 09:46:44;;;;;;;1999.90;999.90;;;21.50;99.90;;;;;;4905668;29;19927;-73
2023/06/23 09:49:10;;;;;;;1999.90;999.90;;;21.60;99.90;;;;;;4910767;29;20565;-70
2023/06/23 09:51:37;;;;;;;1999.90;999.90;;;21.60;99.90;;;;;;4906072;29;20076;-72
2023/06/23 09:54:03;;;;;;;1999.90;999.90;;;21.60;99.90;;;;;;4908805;29;20111;-72
2023/06/23 09:56:29;;;;;;;1999.90;999.90;;;21.60;99.90;;;;;;4906103;29;20044;-72
2023/06/23 09:58:54;;;;;;;1999.90;999.90;;;21.60;99.90;;;;;;4906557;29;20063;-73
2023/06/23 10:01:21;;;;;;;1999.90;999.90;;;21.70;99.90;;;;;;4890678;29;20392;-73
2023/06/23 10:03:48;;;;;;;1999.90;999.90;;;21.70;99.90;;;;;;4909928;29;20052;-73
2023/06/23 10:06:40;;;;;;;1999.90;999.90;;;21.70;99.90;;;;;;4907884;29;20049;-69
2023/06/23 10:09:09;;;;;;;1999.90;999.90;;;21.80;99.90;;;;;;4904304;29;20103;-73
2023/06/23 10:11:36;;;;;;;1999.90;999.90;;;21.90;99.90;;;;;;4907482;29;20040;-73
2023/06/23 10:14:05;;;;;;;1999.90;999.90;;;21.80;99.90;;;;;;4903179;29;20088;-73
2023/06/23 10:16:32;;;;;;;1999.90;999.90;;;21.80;99.90;;;;;;4908243;29;20045;-74
2023/06/23 10:18:58;;;;;;;1999.90;999.90;;;21.90;99.90;;;;;;4904776;29;20040;-73
2023/06/23 10:21:25;;;;;;;1999.90;999.90;;;21.90;99.90;;;;;;4916461;29;20044;-71
2023/06/23 10:23:54;;;;;;;1999.90;999.90;;;21.90;99.90;;;;;;4917041;29;20515;-72
2023/06/23 10:26:22;;;;;;;1999.90;999.90;;;21.90;99.90;;;;;;4915254;29;20401;-73
2023/06/23 10:28:49;;;;;;;1999.90;999.90;;;21.90;99.90;;;;;;4916673;29;20059;-73
2023/06/23 10:31:17;;;;;;;1999.90;999.90;;;22.00;99.90;;;;;;4921121;29;20143;-72
2023/06/23 10:33:43;;;;;;;1999.90;999.90;;;22.00;99.90;;;;;;4921150;29;20146;-72
2023/06/23 10:36:14;;;;;;;1999.90;999.90;;;22.00;99.90;;;;;;4921119;29;20107;-72
2023/06/23 10:38:43;;;;;;;1999.90;999.90;;;22.00;99.90;;;;;;4919974;29;20048;-72
2023/06/23 10:41:10;;;;;;;1999.90;999.90;;;22.10;99.90;;;;;;4920099;29;20044;-70
2023/06/23 10:43:39;;;;;;;1999.90;999.90;;;22.20;99.90;;;;;;4920909;29;20040;-72
2023/06/23 10:46:06;;;;;;;1999.90;999.90;;;22.20;99.90;;;;;;4921301;29;20463;-71
2023/06/23 10:48:32;;;;;;;1999.90;999.90;;;22.30;99.90;;;;;;4920750;29;20087;-70
2023/06/23 10:50:59;;;;;;;1999.90;999.90;;;22.30;99.90;;;;;;4920806;29;20134;-67
2023/06/23 10:53:32;;;;;;;1999.90;999.90;;;22.40;99.90;;;;;;4903692;29;20488;-70
2023/06/23 10:55:59;;;;;;;1999.90;999.90;;;22.40;99.90;;;;;;4920320;29;20087;-70
2023/06/23 10:58:26;;;;;;;1999.90;999.90;;;22.40;99.90;;;;;;4919696;29;20088;-71
2023/06/23 11:00:58;;;;;;;1999.90;999.90;;;22.50;99.90;;;;;;4919791;29;20404;-70
2023/06/23 11:03:35;;;;;;;1999.90;999.90;;;22.50;99.90;;;;;;4921029;29;20139;-69
2023/06/23 11:06:10;;;;;;;1999.90;999.90;;;22.50;99.90;;;;;;4920628;29;20063;-69
2023/06/23 11:08:38;;;;;;;1999.90;999.90;;;22.50;99.90;;;;;;4903833;29;20052;-69
2023/06/23 11:11:11;;;;;;;1999.90;999.90;;;22.60;99.90;;;;;;4920517;29;20059;-70
2023/06/23 11:13:47;;;;;;;1999.90;999.90;;;22.70;99.90;;;;;;4920721;29;20036;-72
2023/06/23 11:16:16;;;;;;;1999.90;999.90;;;22.70;99.90;;;;;;4920527;29;20056;-71
2023/06/23 11:18:57;;;;;;;1999.90;999.90;;;22.70;99.90;;;;;;4920501;29;20059;-72
2023/06/23 11:21:28;;;;;;;1999.90;999.90;;;22.70;99.90;;;;;;4920657;29;20119;-72
2023/06/23 11:24:20;;;;;;;1999.90;999.90;;;22.80;99.90;;;;;;4920383;29;20060;-73
2023/06/23 11:26:49;;;;;;;1999.90;999.90;;;22.90;99.90;;;;;;4919372;29;20111;-72
2023/06/23 11:29:21;;;;;;;1999.90;999.90;;;22.90;99.90;;;;;;4920263;29;20056;-72
2023/06/23 11:32:06;;;;;;;;;;;22.90;99.90;;;;;;4920713;29;20040;-72
2023/06/23 11:34:57;;;;;;;1999.90;999.90;;;22.90;99.90;;;;;;4920151;29;19923;-70
2023/06/23 11:37:25;;;;;;;1999.90;999.90;;;23.00;99.90;;;;;;4913519;29;20146;-73
2023/06/23 11:39:53;;;;;;;1999.90;999.90;;;23.10;99.90;;;;;;4919618;29;20449;-71
2023/06/23 11:42:19;;;;;;;1999.90;999.90;;;23.10;99.90;;;;;;4919854;29;20044;-72
2023/06/23 11:44:44;;;;;;;1999.90;999.90;;;23.10;99.90;;;;;;4919831;29;20055;-72
2023/06/23 11:47:11;;;;;;;1999.90;999.90;;;23.20;99.90;;;;;;4917570;29;20054;-72
2023/06/23 11:49:36;;;;;;;1999.90;999.90;;;23.20;99.90;;;;;;4919515;29;20112;-72
2023/06/23 11:52:06;;;;;;;1999.90;999.90;;;23.20;99.90;;;;;;4919459;29;20052;-72
2023/06/23 11:54:35;;;;;;;1999.90;999.90;;;23.30;99.90;;;;;;4918582;29;20051;-71
2023/06/23 11:57:02;;;;;;;1999.90;999.90;;;23.30;99.90;;;;;;4919261;29;20052;-72
2023/06/23 11:59:39;;;;;;;1999.90;999.90;;;23.20;99.90;;;;;;4919631;29;20059;-71
2023/06/23 12:02:06;;;;;;;1999.90;999.90;;;23.20;99.90;;;;;;4919749;29;20437;-71
2023/06/23 12:04:33;;;;;;;1999.90;999.90;;;23.10;99.90;;;;;;4918492;29;20074;-69
2023/06/23 12:06:59;;;;;;;1999.90;999.90;;;23.10;99.90;;;;;;4918655;29;20118;-69
2023/06/23 12:09:26;;;;;;;1999.90;999.90;;;23.10;99.90;;;;;;4919478;29;20048;-69